sensor_id;sensor_type;location;lat;lon;timestamp;P1;durP1;ratioP1;P2;durP2;ratioP2
11807;SDS011;5961;42.640;23.380;2023-04-25T00:02:24;3.50;;;3.20;;
11807;SDS011;5961;42.640;23.380;2023-04-25T00:04:50;4.60;;;3.60;;
11807;SDS011;5961;42.640;23.380;2023-04-25T00:07:18;3.90;;;3.60;;
11807;SDS011;5961;42.640;23.380;2023-04-25T00:09:45;4.07;;;3.73;;
11807;SDS011;5961;42.640;23.380;2023-04-25T00:12:12;4.40;;;3.73;;
11807;SDS011;5961;42.640;23.380;2023-04-25T00:14:38;4.47;;;4.03;;
11807;SDS011;5961;42.640;23.380;2023-04-25T00:17:05;4.13;;;3.70;;
11807;SDS011;5961;42.640;23.380;2023-04-25T00:19:32;4.07;;;3.50;;
11807;SDS011;5961;42.640;23.380;2023-04-25T00:21:59;4.43;;;3.77;;
11807;SDS011;5961;42.640;23.380;2023-04-25T00:24:27;4.40;;;3.90;;
11807;SDS011;5961;42.640;23.380;2023-04-25T00:26:54;5.43;;;3.50;;
11807;SDS011;5961;42.640;23.380;2023-04-25T00:29:21;4.57;;;3.90;;
11807;SDS011;5961;42.640;23.380;2023-04-25T00:31:48;4.67;;;4.20;;
11807;SDS011;5961;42.640;23.380;2023-04-25T00:34:14;4.20;;;3.80;;
11807;SDS011;5961;42.640;23.380;2023-04-25T00:36:41;4.73;;;4.33;;
11807;SDS011;5961;42.640;23.380;2023-04-25T00:39:08;4.30;;;3.90;;
11807;SDS011;5961;42.640;23.380;2023-04-25T00:41:36;5.27;;;4.03;;
11807;SDS011;5961;42.640;23.380;2023-04-25T00:44:03;6.03;;;4.60;;
11807;SDS011;5961;42.640;23.380;2023-04-25T00:46:31;5.80;;;5.20;;
11807;SDS011;5961;42.640;23.380;2023-04-25T00:48:58;5.53;;;5.03;;
11807;SDS011;5961;42.640;23.380;2023-04-25T00:51:25;5.50;;;4.60;;
11807;SDS011;5961;42.640;23.380;2023-04-25T00:53:52;5.63;;;5.13;;
11807;SDS011;5961;42.640;23.380;2023-04-25T00:56:19;5.00;;;4.50;;
11807;SDS011;5961;42.640;23.380;2023-04-25T00:58:48;5.13;;;4.50;;
11807;SDS011;5961;42.640;23.380;2023-04-25T01:01:16;5.20;;;4.70;;
11807;SDS011;5961;42.640;23.380;2023-04-25T01:03:43;5.53;;;5.03;;
11807;SDS011;5961;42.640;23.380;2023-04-25T01:06:12;5.63;;;5.00;;
11807;SDS011;5961;42.640;23.380;2023-04-25T01:08:39;5.90;;;4.53;;
11807;SDS011;5961;42.640;23.380;2023-04-25T01:11:06;5.60;;;4.83;;
11807;SDS011;5961;42.640;23.380;2023-04-25T01:13:33;5.67;;;5.07;;
11807;SDS011;5961;42.640;23.380;2023-04-25T01:16:02;5.70;;;5.00;;
11807;SDS011;5961;42.640;23.380;2023-04-25T01:18:29;5.47;;;4.97;;
11807;SDS011;5961;42.640;23.380;2023-04-25T01:20:56;5.23;;;4.73;;
11807;SDS011;5961;42.640;23.380;2023-04-25T01:23:28;5.83;;;5.03;;
11807;SDS011;5961;42.640;23.380;2023-04-25T01:25:55;5.23;;;4.73;;
11807;SDS011;5961;42.640;23.380;2023-04-25T01:28:22;5.33;;;4.50;;
11807;SDS011;5961;42.640;23.380;2023-04-25T01:30:49;5.93;;;4.30;;
11807;SDS011;5961;42.640;23.380;2023-04-25T01:33:17;4.77;;;3.87;;
11807;SDS011;5961;42.640;23.380;2023-04-25T01:35:47;3.70;;;3.37;;
11807;SDS011;5961;42.640;23.380;2023-04-25T01:38:15;4.20;;;3.80;;
11807;SDS011;5961;42.640;23.380;2023-04-25T01:40:42;4.70;;;3.50;;
11807;SDS011;5961;42.640;23.380;2023-04-25T01:43:11;3.97;;;3.40;;
11807;SDS011;5961;42.640;23.380;2023-04-25T01:45:39;4.03;;;3.70;;
11807;SDS011;5961;42.640;23.380;2023-04-25T01:48:06;4.53;;;3.70;;
11807;SDS011;5961;42.640;23.380;2023-04-25T01:50:33;4.20;;;3.77;;
11807;SDS011;5961;42.640;23.380;2023-04-25T01:53:00;4.07;;;3.70;;
11807;SDS011;5961;42.640;23.380;2023-04-25T01:55:28;4.70;;;3.90;;
11807;SDS011;5961;42.640;23.380;2023-04-25T01:57:55;4.47;;;4.07;;
11807;SDS011;5961;42.640;23.380;2023-04-25T02:00:22;4.20;;;3.80;;
11807;SDS011;5961;42.640;23.380;2023-04-25T02:02:49;4.83;;;4.00;;
11807;SDS011;5961;42.640;23.380;2023-04-25T02:05:18;4.87;;;4.37;;
11807;SDS011;5961;42.640;23.380;2023-04-25T02:07:45;5.17;;;4.17;;
11807;SDS011;5961;42.640;23.380;2023-04-25T02:10:12;4.83;;;4.43;;
11807;SDS011;5961;42.640;23.380;2023-04-25T02:12:40;5.20;;;4.70;;
11807;SDS011;5961;42.640;23.380;2023-04-25T02:15:07;5.20;;;4.70;;
11807;SDS011;5961;42.640;23.380;2023-04-25T02:17:34;5.17;;;4.70;;
11807;SDS011;5961;42.640;23.380;2023-04-25T02:20:00;5.40;;;4.90;;
11807;SDS011;5961;42.640;23.380;2023-04-25T02:22:28;5.40;;;4.90;;
11807;SDS011;5961;42.640;23.380;2023-04-25T02:24:55;5.50;;;5.00;;
11807;SDS011;5961;42.640;23.380;2023-04-25T02:27:23;5.23;;;4.73;;
11807;SDS011;5961;42.640;23.380;2023-04-25T02:29:51;5.10;;;4.60;;
11807;SDS011;5961;42.640;23.380;2023-04-25T02:32:17;5.53;;;4.97;;
11807;SDS011;5961;42.640;23.380;2023-04-25T02:34:44;5.97;;;5.37;;
11807;SDS011;5961;42.640;23.380;2023-04-25T02:37:11;5.87;;;5.37;;
11807;SDS011;5961;42.640;23.380;2023-04-25T02:39:37;6.27;;;4.73;;
11807;SDS011;5961;42.640;23.380;2023-04-25T02:42:04;6.17;;;5.03;;
11807;SDS011;5961;42.640;23.380;2023-04-25T02:44:31;5.17;;;4.67;;
11807;SDS011;5961;42.640;23.380;2023-04-25T02:46:59;5.37;;;4.83;;
11807;SDS011;5961;42.640;23.380;2023-04-25T02:49:25;5.00;;;4.37;;
11807;SDS011;5961;42.640;23.380;2023-04-25T02:51:52;4.63;;;4.23;;
11807;SDS011;5961;42.640;23.380;2023-04-25T02:54:19;4.60;;;4.20;;
11807;SDS011;5961;42.640;23.380;2023-04-25T02:56:45;4.57;;;4.17;;
11807;SDS011;5961;42.640;23.380;2023-04-25T02:59:12;4.60;;;4.20;;
11807;SDS011;5961;42.640;23.380;2023-04-25T03:01:38;5.10;;;4.60;;
11807;SDS011;5961;42.640;23.380;2023-04-25T03:04:06;5.23;;;4.60;;
11807;SDS011;5961;42.640;23.380;2023-04-25T03:06:33;5.40;;;4.90;;
11807;SDS011;5961;42.640;23.380;2023-04-25T03:09:00;6.83;;;5.57;;
11807;SDS011;5961;42.640;23.380;2023-04-25T03:11:26;6.87;;;5.43;;
11807;SDS011;5961;42.640;23.380;2023-04-25T03:13:53;6.37;;;5.47;;
11807;SDS011;5961;42.640;23.380;2023-04-25T03:16:20;6.07;;;5.47;;
11807;SDS011;5961;42.640;23.380;2023-04-25T03:18:47;6.13;;;5.53;;
11807;SDS011;5961;42.640;23.380;2023-04-25T03:21:16;6.40;;;5.70;;
11807;SDS011;5961;42.640;23.380;2023-04-25T03:23:43;6.60;;;5.30;;
11807;SDS011;5961;42.640;23.380;2023-04-25T03:26:10;6.33;;;5.50;;
11807;SDS011;5961;42.640;23.380;2023-04-25T03:28:37;6.37;;;5.77;;
11807;SDS011;5961;42.640;23.380;2023-04-25T03:31:04;6.90;;;5.87;;
11807;SDS011;5961;42.640;23.380;2023-04-25T03:33:31;6.30;;;5.70;;
11807;SDS011;5961;42.640;23.380;2023-04-25T03:35:58;6.77;;;6.07;;
11807;SDS011;5961;42.640;23.380;2023-04-25T03:38:26;7.63;;;6.83;;
11807;SDS011;5961;42.640;23.380;2023-04-25T03:40:53;7.00;;;6.30;;
11807;SDS011;5961;42.640;23.380;2023-04-25T03:43:21;7.03;;;6.30;;
11807;SDS011;5961;42.640;23.380;2023-04-25T03:45:47;7.07;;;6.33;;
11807;SDS011;5961;42.640;23.380;2023-04-25T03:48:14;7.93;;;6.47;;
11807;SDS011;5961;42.640;23.380;2023-04-25T03:50:41;7.90;;;6.60;;
11807;SDS011;5961;42.640;23.380;2023-04-25T03:53:07;7.00;;;6.30;;
11807;SDS011;5961;42.640;23.380;2023-04-25T03:55:36;8.00;;;7.00;;
11807;SDS011;5961;42.640;23.380;2023-04-25T03:58:02;7.33;;;6.60;;
11807;SDS011;5961;42.640;23.380;2023-04-25T04:00:30;7.80;;;7.00;;
11807;SDS011;5961;42.640;23.380;2023-04-25T04:02:56;7.80;;;6.20;;
11807;SDS011;5961;42.640;23.380;2023-04-25T04:05:23;7.63;;;6.90;;
11807;SDS011;5961;42.640;23.380;2023-04-25T04:07:50;10.37;;;7.50;;
11807;SDS011;5961;42.640;23.380;2023-04-25T04:10:16;9.73;;;7.50;;
11807;SDS011;5961;42.640;23.380;2023-04-25T04:12:44;11.47;;;8.27;;
11807;SDS011;5961;42.640;23.380;2023-04-25T04:15:11;10.63;;;8.30;;
11807;SDS011;5961;42.640;23.380;2023-04-25T04:17:38;10.07;;;8.50;;
11807;SDS011;5961;42.640;23.380;2023-04-25T04:20:06;12.00;;;8.60;;
11807;SDS011;5961;42.640;23.380;2023-04-25T04:22:33;11.97;;;8.97;;
11807;SDS011;5961;42.640;23.380;2023-04-25T04:25:00;11.40;;;8.90;;
11807;SDS011;5961;42.640;23.380;2023-04-25T04:27:28;12.57;;;9.03;;
11807;SDS011;5961;42.640;23.380;2023-04-25T04:29:56;8.90;;;8.00;;
11807;SDS011;5961;42.640;23.380;2023-04-25T04:32:22;11.70;;;8.63;;
11807;SDS011;5961;42.640;23.380;2023-04-25T04:34:50;9.30;;;8.27;;
11807;SDS011;5961;42.640;23.380;2023-04-25T04:37:17;10.57;;;7.90;;
11807;SDS011;5961;42.640;23.380;2023-04-25T04:39:44;9.23;;;8.00;;
11807;SDS011;5961;42.640;23.380;2023-04-25T04:42:11;10.73;;;9.17;;
11807;SDS011;5961;42.640;23.380;2023-04-25T04:44:38;10.83;;;8.63;;
11807;SDS011;5961;42.640;23.380;2023-04-25T04:47:06;9.80;;;8.53;;
11807;SDS011;5961;42.640;23.380;2023-04-25T04:49:33;8.97;;;7.83;;
11807;SDS011;5961;42.640;23.380;2023-04-25T04:51:59;9.87;;;8.50;;
11807;SDS011;5961;42.640;23.380;2023-04-25T04:54:26;12.10;;;8.27;;
11807;SDS011;5961;42.640;23.380;2023-04-25T04:56:53;16.83;;;11.87;;
11807;SDS011;5961;42.640;23.380;2023-04-25T04:59:19;12.30;;;10.03;;
11807;SDS011;5961;42.640;23.380;2023-04-25T05:01:46;14.07;;;9.03;;
11807;SDS011;5961;42.640;23.380;2023-04-25T05:04:14;17.07;;;12.00;;
11807;SDS011;5961;42.640;23.380;2023-04-25T05:06:41;10.83;;;9.50;;
11807;SDS011;5961;42.640;23.380;2023-04-25T05:09:07;11.00;;;9.30;;
11807;SDS011;5961;42.640;23.380;2023-04-25T05:11:34;9.73;;;8.00;;
11807;SDS011;5961;42.640;23.380;2023-04-25T05:14:01;10.03;;;7.43;;
11807;SDS011;5961;42.640;23.380;2023-04-25T05:16:28;8.30;;;7.17;;
11807;SDS011;5961;42.640;23.380;2023-04-25T05:18:54;7.80;;;7.00;;
11807;SDS011;5961;42.640;23.380;2023-04-25T05:21:22;7.33;;;6.33;;
11807;SDS011;5961;42.640;23.380;2023-04-25T05:23:49;7.13;;;5.67;;
11807;SDS011;5961;42.640;23.380;2023-04-25T05:26:16;6.60;;;6.00;;
11807;SDS011;5961;42.640;23.380;2023-04-25T05:28:42;8.73;;;6.73;;
11807;SDS011;5961;42.640;23.380;2023-04-25T05:31:09;8.23;;;7.33;;
11807;SDS011;5961;42.640;23.380;2023-04-25T05:33:36;7.43;;;6.60;;
11807;SDS011;5961;42.640;23.380;2023-04-25T05:36:03;8.53;;;7.57;;
11807;SDS011;5961;42.640;23.380;2023-04-25T05:38:32;10.93;;;8.50;;
11807;SDS011;5961;42.640;23.380;2023-04-25T05:40:59;9.43;;;8.30;;
11807;SDS011;5961;42.640;23.380;2023-04-25T05:43:26;8.43;;;6.70;;
11807;SDS011;5961;42.640;23.380;2023-04-25T05:45:53;7.87;;;6.73;;
11807;SDS011;5961;42.640;23.380;2023-04-25T05:48:19;7.73;;;6.70;;
11807;SDS011;5961;42.640;23.380;2023-04-25T05:50:46;8.03;;;7.23;;
11807;SDS011;5961;42.640;23.380;2023-04-25T05:53:13;9.97;;;7.17;;
11807;SDS011;5961;42.640;23.380;2023-04-25T05:55:41;8.27;;;7.40;;
11807;SDS011;5961;42.640;23.380;2023-04-25T05:58:07;9.30;;;7.73;;
11807;SDS011;5961;42.640;23.380;2023-04-25T06:00:34;10.03;;;7.87;;
11807;SDS011;5961;42.640;23.380;2023-04-25T06:03:01;8.40;;;7.20;;
11807;SDS011;5961;42.640;23.380;2023-04-25T06:05:28;10.13;;;8.03;;
11807;SDS011;5961;42.640;23.380;2023-04-25T06:07:54;8.50;;;7.70;;
11807;SDS011;5961;42.640;23.380;2023-04-25T06:10:21;8.90;;;8.00;;
11807;SDS011;5961;42.640;23.380;2023-04-25T06:12:50;9.17;;;7.37;;
11807;SDS011;5961;42.640;23.380;2023-04-25T06:15:16;10.07;;;7.57;;
11807;SDS011;5961;42.640;23.380;2023-04-25T06:17:43;10.30;;;9.13;;
11807;SDS011;5961;42.640;23.380;2023-04-25T06:20:10;12.57;;;9.17;;
11807;SDS011;5961;42.640;23.380;2023-04-25T06:22:37;11.47;;;8.17;;
11807;SDS011;5961;42.640;23.380;2023-04-25T06:25:04;9.47;;;7.70;;
11807;SDS011;5961;42.640;23.380;2023-04-25T06:27:32;12.13;;;8.13;;
11807;SDS011;5961;42.640;23.380;2023-04-25T06:30:00;8.20;;;7.40;;
11807;SDS011;5961;42.640;23.380;2023-04-25T06:32:26;8.23;;;7.03;;
11807;SDS011;5961;42.640;23.380;2023-04-25T06:34:54;8.03;;;7.23;;
11807;SDS011;5961;42.640;23.380;2023-04-25T06:37:21;9.63;;;7.23;;
11807;SDS011;5961;42.640;23.380;2023-04-25T06:39:48;8.77;;;7.30;;
11807;SDS011;5961;42.640;23.380;2023-04-25T06:42:15;11.00;;;7.97;;
11807;SDS011;5961;42.640;23.380;2023-04-25T06:44:41;9.80;;;7.43;;
11807;SDS011;5961;42.640;23.380;2023-04-25T06:47:09;9.50;;;7.40;;
11807;SDS011;5961;42.640;23.380;2023-04-25T06:49:36;13.20;;;9.83;;
11807;SDS011;5961;42.640;23.380;2023-04-25T06:52:03;10.20;;;7.33;;
11807;SDS011;5961;42.640;23.380;2023-04-25T06:54:29;11.33;;;8.83;;
11807;SDS011;5961;42.640;23.380;2023-04-25T06:56:56;11.70;;;8.60;;
11807;SDS011;5961;42.640;23.380;2023-04-25T06:59:23;10.77;;;7.93;;
11807;SDS011;5961;42.640;23.380;2023-04-25T07:01:49;7.97;;;7.10;;
11807;SDS011;5961;42.640;23.380;2023-04-25T07:04:17;7.53;;;6.23;;
11807;SDS011;5961;42.640;23.380;2023-04-25T07:06:44;14.30;;;9.37;;
11807;SDS011;5961;42.640;23.380;2023-04-25T07:09:12;12.70;;;8.70;;
11807;SDS011;5961;42.640;23.380;2023-04-25T07:11:39;9.50;;;7.23;;
11807;SDS011;5961;42.640;23.380;2023-04-25T07:14:06;9.93;;;7.10;;
11807;SDS011;5961;42.640;23.380;2023-04-25T07:16:32;8.40;;;6.80;;
11807;SDS011;5961;42.640;23.380;2023-04-25T07:18:59;10.43;;;6.63;;
11807;SDS011;5961;42.640;23.380;2023-04-25T07:21:27;9.30;;;7.37;;
11807;SDS011;5961;42.640;23.380;2023-04-25T07:23:55;9.40;;;6.30;;
11807;SDS011;5961;42.640;23.380;2023-04-25T07:26:22;17.30;;;8.03;;
11807;SDS011;5961;42.640;23.380;2023-04-25T07:28:49;16.50;;;11.73;;
11807;SDS011;5961;42.640;23.380;2023-04-25T07:31:16;12.73;;;7.67;;
11807;SDS011;5961;42.640;23.380;2023-04-25T07:33:43;19.37;;;14.10;;
11807;SDS011;5961;42.640;23.380;2023-04-25T07:36:10;11.93;;;8.10;;
11807;SDS011;5961;42.640;23.380;2023-04-25T07:38:38;14.03;;;7.63;;
11807;SDS011;5961;42.640;23.380;2023-04-25T07:41:05;7.53;;;6.80;;
11807;SDS011;5961;42.640;23.380;2023-04-25T07:43:32;11.77;;;8.30;;
11807;SDS011;5961;42.640;23.380;2023-04-25T07:45:59;13.83;;;8.57;;
11807;SDS011;5961;42.640;23.380;2023-04-25T07:48:26;15.70;;;9.40;;
11807;SDS011;5961;42.640;23.380;2023-04-25T07:50:52;10.20;;;7.10;;
11807;SDS011;5961;42.640;23.380;2023-04-25T07:53:19;9.63;;;7.63;;
11807;SDS011;5961;42.640;23.380;2023-04-25T07:55:47;9.90;;;6.77;;
11807;SDS011;5961;42.640;23.380;2023-04-25T07:58:14;10.10;;;6.20;;
11807;SDS011;5961;42.640;23.380;2023-04-25T08:00:46;6.80;;;5.77;;
11807;SDS011;5961;42.640;23.380;2023-04-25T08:03:12;14.07;;;7.93;;
11807;SDS011;5961;42.640;23.380;2023-04-25T08:05:39;8.90;;;6.10;;
11807;SDS011;5961;42.640;23.380;2023-04-25T08:08:06;8.83;;;6.27;;
11807;SDS011;5961;42.640;23.380;2023-04-25T08:10:32;9.37;;;7.57;;
11807;SDS011;5961;42.640;23.380;2023-04-25T08:13:00;9.07;;;6.57;;
11807;SDS011;5961;42.640;23.380;2023-04-25T08:15:27;8.23;;;6.60;;
11807;SDS011;5961;42.640;23.380;2023-04-25T08:17:54;8.03;;;6.33;;
11807;SDS011;5961;42.640;23.380;2023-04-25T08:20:21;6.57;;;5.80;;
11807;SDS011;5961;42.640;23.380;2023-04-25T08:22:47;9.57;;;5.30;;
11807;SDS011;5961;42.640;23.380;2023-04-25T08:25:14;7.37;;;5.63;;
11807;SDS011;5961;42.640;23.380;2023-04-25T08:27:41;7.63;;;5.60;;
11807;SDS011;5961;42.640;23.380;2023-04-25T08:30:09;6.63;;;5.50;;
11807;SDS011;5961;42.640;23.380;2023-04-25T08:32:36;7.70;;;5.67;;
11807;SDS011;5961;42.640;23.380;2023-04-25T08:35:04;9.77;;;5.60;;
11807;SDS011;5961;42.640;23.380;2023-04-25T08:37:31;8.30;;;5.87;;
11807;SDS011;5961;42.640;23.380;2023-04-25T08:39:58;7.47;;;5.77;;
11807;SDS011;5961;42.640;23.380;2023-04-25T08:42:25;6.60;;;5.10;;
11807;SDS011;5961;42.640;23.380;2023-04-25T08:44:53;6.43;;;5.10;;
11807;SDS011;5961;42.640;23.380;2023-04-25T08:47:22;7.40;;;4.87;;
11807;SDS011;5961;42.640;23.380;2023-04-25T08:49:50;6.30;;;4.77;;
11807;SDS011;5961;42.640;23.380;2023-04-25T08:52:21;6.87;;;4.30;;
11807;SDS011;5961;42.640;23.380;2023-04-25T08:54:49;3.70;;;3.40;;
11807;SDS011;5961;42.640;23.380;2023-04-25T08:57:17;6.47;;;4.40;;
11807;SDS011;5961;42.640;23.380;2023-04-25T08:59:45;4.13;;;3.30;;
11807;SDS011;5961;42.640;23.380;2023-04-25T09:02:13;5.90;;;3.70;;
11807;SDS011;5961;42.640;23.380;2023-04-25T09:04:43;3.17;;;2.60;;
11807;SDS011;5961;42.640;23.380;2023-04-25T09:07:10;2.90;;;2.63;;
11807;SDS011;5961;42.640;23.380;2023-04-25T09:09:37;4.47;;;4.00;;
11807;SDS011;5961;42.640;23.380;2023-04-25T09:12:05;7.63;;;6.80;;
11807;SDS011;5961;42.640;23.380;2023-04-25T09:14:31;15.03;;;7.80;;
11807;SDS011;5961;42.640;23.380;2023-04-25T09:16:59;9.23;;;7.40;;
11807;SDS011;5961;42.640;23.380;2023-04-25T09:19:30;9.53;;;7.27;;
11807;SDS011;5961;42.640;23.380;2023-04-25T09:22:00;10.60;;;6.63;;
11807;SDS011;5961;42.640;23.380;2023-04-25T09:24:31;6.50;;;5.83;;
11807;SDS011;5961;42.640;23.380;2023-04-25T09:26:59;6.23;;;5.63;;
11807;SDS011;5961;42.640;23.380;2023-04-25T09:29:30;6.73;;;5.40;;
11807;SDS011;5961;42.640;23.380;2023-04-25T09:34:41;7.57;;;6.33;;
11807;SDS011;5961;42.640;23.380;2023-04-25T09:37:10;9.53;;;5.23;;
11807;SDS011;5961;42.640;23.380;2023-04-25T09:39:37;7.67;;;6.00;;
11807;SDS011;5961;42.640;23.380;2023-04-25T09:42:04;10.30;;;6.30;;
11807;SDS011;5961;42.640;23.380;2023-04-25T09:44:31;6.67;;;5.30;;
11807;SDS011;5961;42.640;23.380;2023-04-25T09:46:58;7.00;;;6.30;;
11807;SDS011;5961;42.640;23.380;2023-04-25T09:49:25;11.57;;;6.03;;
11807;SDS011;5961;42.640;23.380;2023-04-25T09:51:55;8.27;;;6.27;;
11807;SDS011;5961;42.640;23.380;2023-04-25T09:54:25;11.93;;;9.17;;
11807;SDS011;5961;42.640;23.380;2023-04-25T09:56:53;9.23;;;7.93;;
11807;SDS011;5961;42.640;23.380;2023-04-25T09:59:20;10.43;;;6.93;;
11807;SDS011;5961;42.640;23.380;2023-04-25T10:01:48;7.90;;;5.00;;
11807;SDS011;5961;42.640;23.380;2023-04-25T10:04:16;6.90;;;6.20;;
11807;SDS011;5961;42.640;23.380;2023-04-25T10:06:48;7.43;;;6.50;;
11807;SDS011;5961;42.640;23.380;2023-04-25T10:09:15;13.10;;;8.23;;
11807;SDS011;5961;42.640;23.380;2023-04-25T10:11:46;13.30;;;8.40;;
11807;SDS011;5961;42.640;23.380;2023-04-25T10:14:14;8.17;;;7.07;;
11807;SDS011;5961;42.640;23.380;2023-04-25T10:16:42;5.77;;;4.70;;
11807;SDS011;5961;42.640;23.380;2023-04-25T10:19:09;7.40;;;5.70;;
11807;SDS011;5961;42.640;23.380;2023-04-25T10:21:36;6.13;;;4.73;;
11807;SDS011;5961;42.640;23.380;2023-04-25T10:24:12;5.00;;;4.50;;
11807;SDS011;5961;42.640;23.380;2023-04-25T10:26:39;5.60;;;4.70;;
11807;SDS011;5961;42.640;23.380;2023-04-25T10:29:08;2.83;;;2.23;;
11807;SDS011;5961;42.640;23.380;2023-04-25T10:31:38;1.33;;;1.23;;
11807;SDS011;5961;42.640;23.380;2023-04-25T10:34:11;4.03;;;1.60;;
11807;SDS011;5961;42.640;23.380;2023-04-25T10:36:38;1.93;;;1.73;;
11807;SDS011;5961;42.640;23.380;2023-04-25T10:39:05;3.23;;;2.70;;
11807;SDS011;5961;42.640;23.380;2023-04-25T10:41:45;5.63;;;3.53;;
11807;SDS011;5961;42.640;23.380;2023-04-25T10:44:14;3.70;;;3.00;;
11807;SDS011;5961;42.640;23.380;2023-04-25T10:46:41;4.73;;;3.50;;
11807;SDS011;5961;42.640;23.380;2023-04-25T10:49:10;4.87;;;3.40;;
11807;SDS011;5961;42.640;23.380;2023-04-25T10:51:59;4.60;;;4.20;;
11807;SDS011;5961;42.640;23.380;2023-04-25T10:54:40;6.80;;;4.17;;
11807;SDS011;5961;42.640;23.380;2023-04-25T10:57:07;5.17;;;4.47;;
11807;SDS011;5961;42.640;23.380;2023-04-25T10:59:35;3.50;;;3.20;;
11807;SDS011;5961;42.640;23.380;2023-04-25T11:02:02;6.30;;;4.10;;
11807;SDS011;5961;42.640;23.380;2023-04-25T11:04:38;5.37;;;3.37;;
11807;SDS011;5961;42.640;23.380;2023-04-25T11:07:08;4.37;;;3.87;;
11807;SDS011;5961;42.640;23.380;2023-04-25T11:09:40;4.23;;;3.77;;
11807;SDS011;5961;42.640;23.380;2023-04-25T11:12:07;3.50;;;3.20;;
11807;SDS011;5961;42.640;23.380;2023-04-25T11:14:37;4.40;;;2.73;;
11807;SDS011;5961;42.640;23.380;2023-04-25T11:17:04;5.97;;;3.10;;
11807;SDS011;5961;42.640;23.380;2023-04-25T11:19:31;5.77;;;4.90;;
11807;SDS011;5961;42.640;23.380;2023-04-25T11:21:59;5.30;;;4.50;;
11807;SDS011;5961;42.640;23.380;2023-04-25T11:24:26;3.60;;;2.80;;
11807;SDS011;5961;42.640;23.380;2023-04-25T11:26:53;3.40;;;2.20;;
11807;SDS011;5961;42.640;23.380;2023-04-25T11:29:21;2.30;;;2.10;;
11807;SDS011;5961;42.640;23.380;2023-04-25T11:31:50;5.10;;;2.93;;
11807;SDS011;5961;42.640;23.380;2023-04-25T11:34:17;4.10;;;2.83;;
11807;SDS011;5961;42.640;23.380;2023-04-25T11:36:44;5.37;;;3.63;;
11807;SDS011;5961;42.640;23.380;2023-04-25T11:39:11;4.17;;;2.73;;
11807;SDS011;5961;42.640;23.380;2023-04-25T11:41:38;5.63;;;2.40;;
11807;SDS011;5961;42.640;23.380;2023-04-25T11:44:05;8.57;;;6.10;;
11807;SDS011;5961;42.640;23.380;2023-04-25T11:46:33;16.00;;;10.00;;
11807;SDS011;5961;42.640;23.380;2023-04-25T11:49:01;7.37;;;4.00;;
11807;SDS011;5961;42.640;23.380;2023-04-25T11:51:29;16.03;;;10.73;;
11807;SDS011;5961;42.640;23.380;2023-04-25T11:53:56;11.33;;;5.27;;
11807;SDS011;5961;42.640;23.380;2023-04-25T11:56:23;3.83;;;3.03;;
11807;SDS011;5961;42.640;23.380;2023-04-25T11:58:59;3.43;;;2.60;;
11807;SDS011;5961;42.640;23.380;2023-04-25T12:01:27;3.93;;;2.50;;
11807;SDS011;5961;42.640;23.380;2023-04-25T12:03:55;3.33;;;1.40;;
11807;SDS011;5961;42.640;23.380;2023-04-25T12:06:27;1.47;;;1.33;;
11807;SDS011;5961;42.640;23.380;2023-04-25T12:09:01;1.87;;;1.30;;
11807;SDS011;5961;42.640;23.380;2023-04-25T12:11:29;1.07;;;1.03;;
11807;SDS011;5961;42.640;23.380;2023-04-25T12:14:01;2.00;;;1.20;;
11807;SDS011;5961;42.640;23.380;2023-04-25T12:16:29;1.53;;;1.43;;
11807;SDS011;5961;42.640;23.380;2023-04-25T12:18:56;2.03;;;1.83;;
11807;SDS011;5961;42.640;23.380;2023-04-25T12:21:29;1.63;;;1.53;;
11807;SDS011;5961;42.640;23.380;2023-04-25T12:24:07;4.93;;;4.27;;
11807;SDS011;5961;42.640;23.380;2023-04-25T12:26:45;2.23;;;1.60;;
11807;SDS011;5961;42.640;23.380;2023-04-25T12:29:15;3.57;;;2.83;;
11807;SDS011;5961;42.640;23.380;2023-04-25T12:31:42;3.50;;;2.93;;
11807;SDS011;5961;42.640;23.380;2023-04-25T12:34:09;6.23;;;4.47;;
11807;SDS011;5961;42.640;23.380;2023-04-25T12:36:37;2.37;;;1.73;;
11807;SDS011;5961;42.640;23.380;2023-04-25T12:39:04;3.47;;;2.03;;
11807;SDS011;5961;42.640;23.380;2023-04-25T12:41:31;4.63;;;3.00;;
11807;SDS011;5961;42.640;23.380;2023-04-25T12:43:58;2.43;;;2.00;;
11807;SDS011;5961;42.640;23.380;2023-04-25T12:46:25;2.53;;;2.20;;
11807;SDS011;5961;42.640;23.380;2023-04-25T12:48:52;1.93;;;1.50;;
11807;SDS011;5961;42.640;23.380;2023-04-25T12:51:20;1.93;;;1.40;;
11807;SDS011;5961;42.640;23.380;2023-04-25T12:53:51;1.63;;;1.27;;
11807;SDS011;5961;42.640;23.380;2023-04-25T12:56:18;1.40;;;1.30;;
11807;SDS011;5961;42.640;23.380;2023-04-25T12:58:45;2.33;;;1.30;;
11807;SDS011;5961;42.640;23.380;2023-04-25T13:01:13;2.97;;;1.40;;
11807;SDS011;5961;42.640;23.380;2023-04-25T13:03:40;1.40;;;1.30;;
11807;SDS011;5961;42.640;23.380;2023-04-25T13:06:07;2.23;;;1.53;;
11807;SDS011;5961;42.640;23.380;2023-04-25T13:08:33;3.57;;;1.60;;
11807;SDS011;5961;42.640;23.380;2023-04-25T13:11:03;1.90;;;1.40;;
11807;SDS011;5961;42.640;23.380;2023-04-25T13:13:30;1.50;;;1.40;;
11807;SDS011;5961;42.640;23.380;2023-04-25T13:15:59;3.13;;;1.70;;
11807;SDS011;5961;42.640;23.380;2023-04-25T13:18:27;1.60;;;1.50;;
11807;SDS011;5961;42.640;23.380;2023-04-25T13:20:54;2.17;;;1.50;;
11807;SDS011;5961;42.640;23.380;2023-04-25T13:23:20;2.80;;;1.90;;
11807;SDS011;5961;42.640;23.380;2023-04-25T13:25:47;1.97;;;1.60;;
11807;SDS011;5961;42.640;23.380;2023-04-25T13:28:15;3.30;;;1.83;;
11807;SDS011;5961;42.640;23.380;2023-04-25T13:30:42;5.20;;;1.53;;
11807;SDS011;5961;42.640;23.380;2023-04-25T13:33:09;2.13;;;1.70;;
11807;SDS011;5961;42.640;23.380;2023-04-25T13:35:36;1.70;;;1.60;;
11807;SDS011;5961;42.640;23.380;2023-04-25T13:38:03;2.00;;;1.77;;
11807;SDS011;5961;42.640;23.380;2023-04-25T13:40:30;2.20;;;1.83;;
11807;SDS011;5961;42.640;23.380;2023-04-25T13:42:58;3.73;;;1.90;;
11807;SDS011;5961;42.640;23.380;2023-04-25T13:45:26;1.97;;;1.63;;
11807;SDS011;5961;42.640;23.380;2023-04-25T13:47:53;3.33;;;1.70;;
11807;SDS011;5961;42.640;23.380;2023-04-25T13:50:20;2.20;;;1.50;;
11807;SDS011;5961;42.640;23.380;2023-04-25T13:52:47;2.20;;;1.97;;
11807;SDS011;5961;42.640;23.380;2023-04-25T13:55:13;2.63;;;1.90;;
11807;SDS011;5961;42.640;23.380;2023-04-25T13:57:40;2.07;;;1.80;;
11807;SDS011;5961;42.640;23.380;2023-04-25T14:00:08;3.03;;;1.80;;
11807;SDS011;5961;42.640;23.380;2023-04-25T14:02:37;3.07;;;1.50;;
11807;SDS011;5961;42.640;23.380;2023-04-25T14:05:04;1.70;;;1.50;;
11807;SDS011;5961;42.640;23.380;2023-04-25T14:07:32;1.40;;;1.30;;
11807;SDS011;5961;42.640;23.380;2023-04-25T14:09:59;2.30;;;1.50;;
11807;SDS011;5961;42.640;23.380;2023-04-25T14:12:26;1.27;;;1.20;;
11807;SDS011;5961;42.640;23.380;2023-04-25T14:14:53;1.40;;;1.30;;
11807;SDS011;5961;42.640;23.380;2023-04-25T14:17:21;1.20;;;1.20;;
11807;SDS011;5961;42.640;23.380;2023-04-25T14:19:49;1.50;;;1.40;;
11807;SDS011;5961;42.640;23.380;2023-04-25T14:22:15;1.87;;;1.70;;
11807;SDS011;5961;42.640;23.380;2023-04-25T14:24:42;1.50;;;1.27;;
11807;SDS011;5961;42.640;23.380;2023-04-25T14:27:09;1.97;;;1.77;;
11807;SDS011;5961;42.640;23.380;2023-04-25T14:29:36;1.50;;;1.40;;
11807;SDS011;5961;42.640;23.380;2023-04-25T14:32:03;3.33;;;2.53;;
11807;SDS011;5961;42.640;23.380;2023-04-25T14:34:30;3.87;;;3.17;;
11807;SDS011;5961;42.640;23.380;2023-04-25T14:36:58;4.10;;;3.13;;
11807;SDS011;5961;42.640;23.380;2023-04-25T14:39:25;6.60;;;4.53;;
11807;SDS011;5961;42.640;23.380;2023-04-25T14:41:52;5.57;;;4.30;;
11807;SDS011;5961;42.640;23.380;2023-04-25T14:44:18;5.67;;;3.77;;
11807;SDS011;5961;42.640;23.380;2023-04-25T14:46:45;5.77;;;3.70;;
11807;SDS011;5961;42.640;23.380;2023-04-25T14:49:12;4.07;;;2.60;;
11807;SDS011;5961;42.640;23.380;2023-04-25T14:51:39;5.77;;;5.13;;